ADDS METAR Data INFO
IDs: Format: Raw Decoded Include TAF

Data at: 0742 UTC 23 Apr 2018

KGLS 230652Z AUTO 35007KT 10SM CLR 18/12 A3004 RMK AO2 SLP171 T01830122
KGLS 230552Z AUTO 34012KT 10SM CLR 19/12 A3004 RMK AO2 SLP171 T01890117 10222 20183 402330183 51007
KGLS 230452Z AUTO 32008KT 10SM CLR 19/12 A3004 RMK AO2 SLP171 T01890122
KGLS 230352Z AUTO 34010KT 10SM CLR 19/13 A3003 RMK AO2 SLP168 T01940133
KGLS 230252Z AUTO 34011KT 10SM CLR 20/13 A3002 RMK AO2 SLP164 T02000133 53016
KGLS 230152Z AUTO 34012KT 10SM CLR 21/13 A3000 RMK AO2 SLP157 T02060133
KGLS 230052Z AUTO 33009KT 10SM CLR 21/13 A2998 RMK AO2 SLP151 T02110128
KGLS 222352Z AUTO 35010KT 10SM CLR 22/14 A2997 RMK AO2 SLP148 T02170144 10233 20200 55004
KGLS 222252Z AUTO 36011KT 10SM CLR 22/14 A2997 RMK AO2 SLP148 T02220144
KGLS 222152Z 01014KT 10SM CLR 22/15 A2996 RMK AO2 SLP146 T02220150
KGLS 222052Z 36014KT 10SM CLR 22/16 A2998 RMK AO2 SLP152 T02170156 58017
KGLS 221952Z 35012KT 10SM CLR 22/16 A3001 RMK AO2 SLP161 T02170156
KGLS 221852Z 31012G19KT 10SM CLR 21/14 A3002 RMK AO2 SLP166 T02110144
KGLS 221752Z 33013KT 10SM SCT017 20/16 A3003 RMK AO2 SLP169 T02000156 10211 20183 58001
KGLS 221747Z 32013KT 10SM SCT017 20/15 A3003 RMK AO2
KGLS 221716Z 32013KT 10SM BKN016 19/15 A3003 RMK AO2 T01940150
KGLS 221701Z 32011KT 10SM BKN014 19/16 A3004 RMK AO2 T01940156
KGLS 221652Z 32013G17KT 10SM OVC015 19/16 A3004 RMK AO2 SLP170 T01890156
KGLS 221619Z 30011KT 10SM OVC015 19/16 A3003 RMK AO2 T01940161
KGLS 221552Z 32011KT 10SM BKN014 19/16 A3003 RMK AO2 SLP170 T01940161
KGLS 221548Z 30011KT 10SM BKN014 19/16 A3003 RMK AO2
KGLS 221500Z 32012KT 10SM BKN016 21/17 A3001 RMK AO2 T02060172
KGLS 221452Z 33014KT 10SM BKN014 21/18 A3000 RMK AO2 SLP160 T02110178 51008
KGLS 221450Z 34013KT 10SM BKN014 21/18 A3000 RMK AO2
KGLS 221433Z 32009KT 10SM SCT024 21/18 A3000 RMK AO2 T02060183
KGLS 221352Z 31013KT 9SM SCT006 OVC022 19/18 A2999 RMK AO2 SLP156 T01940183
KGLS 221344Z 31011KT 8SM SCT006 SCT015 OVC023 19/19 A2999 RMK AO2 T01940189
KGLS 221337Z 31011KT 6SM BR BKN006 BKN015 OVC023 18/18 A2999 RMK AO2 T01830183
KGLS 221304Z 30011KT 10SM SCT009 OVC021 20/19 A2998 RMK AO2 T02000189
KGLS 221252Z 30011KT 10SM FEW010 OVC021 20/19 A2998 RMK AO2 SLP152 T02000194
KGLS 221200Z 30010KT 10SM BKN015 21/20 A2995 RMK AO2 T02060200
KGLS 221152Z 31010KT 10SM OVC013 21/20 A2995 RMK AO2 SLP142 60092 70154 T02060200 10211 20194 53012
KGLS 221143Z 31011KT 10SM OVC014 21/20 A2994 RMK AO2 T02060200
KGLS 221129Z 31011G20KT 10SM OVC015 21/20 A2994 RMK AO2 T02060200
KGLS 221052Z 31010KT 10SM BKN014 21/20 A2993 RMK AO2 SLP134 T02060200
KGLS 221021Z AUTO 29009KT 10SM FEW010 BKN013 OVC034 21/21 A2992 RMK AO2 T02110206
KGLS 220952Z AUTO 29008KT 10SM FEW017 BKN034 OVC045 21/21 A2992 RMK AO2 RAB0854E04 SLP131 P0000 T02110206
KGLS 220932Z AUTO 27008KT 10SM SCT011 BKN027 21/21 A2992 RMK AO2 RAB0854E04 P0000 T02110206
KGLS 220902Z AUTO 28009KT 10SM -RA BKN013 BKN017 OVC024 21/21 A2991 RMK AO2 RAB0854 P0000 T02110206
KGLS 220852Z AUTO 27008KT 10SM SCT013 BKN017 OVC023 21/21 A2992 RMK AO2 SLP130 60092 T02110211 55004
KGLS 220835Z AUTO 27010KT 10SM BKN021 BKN100 21/21 A2991 RMK AO2 T02060206
KGLS 220752Z AUTO 21006KT 10SM FEW022 FEW043 20/19 A2990 RMK AO2 RAE42 SLP124 P0027 T02000194
KGLS 220722Z AUTO 28009KT 3SM -RA BR BKN030 BKN060 OVC090 20/20 A2992 RMK AO2 P0027 T02000200
KGLS 220652Z AUTO 28017G21KT 1 1/2SM +RA BR FEW005 BKN019 OVC033 21/21 A2992 RMK AO2 PK WND 28035/0623 SLP132 P0065 T02060206 $
KGLS 220645Z AUTO 28012KT 1 1/2SM RA BR FEW005 BKN019 OVC033 21/21 A2992 RMK AO2 PK WND 28035/0623 P0061 T02060206
KGLS 220631Z AUTO 28010G35KT 1/2SM +RA FG BKN017 OVC034 20/20 A2992 RMK AO2 PK WND 28035/0623 P0045 T02000200
KGLS 220552Z AUTO 26012G22KT 1 1/2SM +RA BR FEW006 SCT011 OVC016 21/21 A2993 RMK AO2 PK WND 27028/0528 LTG DSNT NE AND E RAB01 TSB13E40 SLP134 P0062 60062 T02060206 10222 20206 402390194 53009
KGLS 220547Z AUTO 27011KT 1 1/4SM VCTS +RA BR FEW006 SCT011 OVC016 21/21 A2992 RMK AO2 PK WND 27028/0528 LTG DSNT NE AND E RAB01 TSB13E40 P0056
KGLS 220545Z AUTO 27010KT 1SM VCTS +RA BR BKN013 BKN018 OVC036 21/21 A2992 RMK AO2 PK WND 27028/0528 LTG DSNT NE-S RAB01 TSB13E40 P0054 T02060206
KGLS 220540Z AUTO 26004KT 3/4SM VCTS +RA BR FEW010 BKN016 OVC036 21/21 A2993 RMK AO2 PK WND 27028/0528 LTG DSNT ALQDS RAB01 TSB13E40 P0049 T02060206
KGLS 220532Z AUTO 30009G28KT 1/2SM +TSRA FG BKN008 OVC037 21/21 A2993 RMK AO2 PK WND 27028/0528 LTG DSNT NE AND S AND SW RAB01 TSB13 P0036 T02110211
KGLS 220528Z AUTO 27020G28KT 1 3/4SM +TSRA BR FEW005 SCT010 OVC037 22/22 A2994 RMK AO2 PK WND 27028/0528 LTG DSNT NE AND S AND SW RAB01 TSB13 PRESRR P0021 T02220217
KGLS 220519Z AUTO 17009G19KT 7SM TSRA BKN037 OVC050 22/22 A2989 RMK AO2 LTG DSNT NE AND SW RAB01 TSB13 PRESRR P0003 T02220217
KGLS 220507Z AUTO 16016G24KT 7SM VCTS RA BKN037 OVC050 22/22 A2987 RMK AO2 LTG DSNT SW-N RAB01 P0002 T02220217
KGLS 220452Z AUTO 15020G24KT 10SM SCT040 BKN050 22/22 A2985 RMK AO2 PK WND 15029/0427 LTG DSNT N SLP108 T02220217
KGLS 220352Z AUTO 15018KT 10SM BKN042 OVC055 22/22 A2989 RMK AO2 SLP119 T02220217
KGLS 220252Z AUTO 14016KT 10SM OVC045 22/22 A2990 RMK AO2 SLP125 T02220217 56007
KGLS 220152Z AUTO 13014KT 10SM BKN050 OVC060 22/21 A2991 RMK AO2 SLP127 T02220211
KGLS 220052Z AUTO 12013KT 10SM OVC095 22/21 A2990 RMK AO2 SLP123 T02220211
KGLS 212352Z AUTO 12013KT 10SM BKN095 22/21 A2992 RMK AO2 SLP132 60000 T02220211 10239 20217 58015
KGLS 212252Z 12011KT 6SM BR SCT060 BKN080 22/21 A2994 RMK AO2 SLP137 T02220211
KGLS 212225Z 12010KT 6SM BR SCT024 BKN035 OVC060 23/21 A2995 RMK AO2 T02280211
KGLS 212159Z 13010KT 6SM BR BKN023 BKN029 OVC036 22/21 A2996 RMK AO2 T02220211
KGLS 212152Z 13011KT 6SM BR SCT023 OVC032 22/21 A2995 RMK AO2 SLP143 T02220211
KGLS 212103Z 11012KT 6SM BR SCT006 BKN024 OVC080 23/22 A2996 RMK AO2 T02280217
KGLS 212052Z 11009KT 6SM BR FEW006 SCT024 BKN080 23/22 A2997 RMK AO2 SLP147 60000 T02280217 56011
KGLS 212050Z 11010KT 6SM BR FEW006 FEW024 BKN080 22/22 A2997 RMK AO2
KGLS 211952Z 12011KT 6SM BR BKN055 BKN085 22/21 A2999 RMK AO2 RAB12E47 SLP156 P0000 T02170211